Aviation Digital Data Service (ADDS)

Output produced by METARs form (0258 UTC 18 June 2019)
found at http://www.aviationweather.gov/metar/data/
 
Forecast for: RJSF (FUKUSHIMA ARPT , JP)
Text: TAF RJSF 172305Z 1800/1906 20010KT 9999 FEW020 BKN030
Forecast period: 0000 UTC 18 June 2019 to 0600 UTC 19 June 2019
Forecast type: FROM: standard forecast or significant change
Winds: from the SSW (200 degrees) at 12 MPH (10 knots; 5.1 m/s)
Visibility: 6 or more miles 10+ km)
Ceiling: 3000 feet AGL
Clouds: few clouds at 2000 feet AGL
broken clouds at 3000 feet AGL
Weather: no significant weather forecast for this period
Text: TEMPO 1808/1811 4000 SHRA BR
Forecast period: 0800 to 1100 UTC 18 June 2019
Forecast type: TEMPORARY: The following changes expected for less than half the time period
Visibility: 2.49 miles (4.01 km)
Ceiling: unknown
Clouds: missing
Weather: SHRA BR  (rain showers, mist)
Text: TEMPO 1815/1821 3000 BR FEW005 BKN008 BKN015
Forecast period: 1500 to 2100 UTC 18 June 2019
Forecast type: TEMPORARY: The following changes expected for less than half the time period
Visibility: 1.86 miles (2.99 km)
Ceiling: 800 feet AGL
Clouds: few clouds at 500 feet AGL
broken clouds at 800 feet AGL
broken clouds at 1500 feet AGL
Weather: BR  (mist)